sensor_id;sensor_type;location;lat;lon;timestamp;P1;durP1;ratioP1;P2;durP2;ratioP2
11735;SDS011;5924;51.398;7.088;2023-03-31T00:02:19;6.50;;;1.67;;
11735;SDS011;5924;51.398;7.088;2023-03-31T00:04:46;6.13;;;1.63;;
11735;SDS011;5924;51.398;7.088;2023-03-31T00:07:17;5.77;;;1.53;;
11735;SDS011;5924;51.398;7.088;2023-03-31T00:09:48;1.63;;;1.50;;
11735;SDS011;5924;51.398;7.088;2023-03-31T00:12:18;5.50;;;1.70;;
11735;SDS011;5924;51.398;7.088;2023-03-31T00:14:45;2.70;;;1.57;;
11735;SDS011;5924;51.398;7.088;2023-03-31T00:17:10;5.53;;;1.90;;
11735;SDS011;5924;51.398;7.088;2023-03-31T00:19:36;3.27;;;1.70;;
11735;SDS011;5924;51.398;7.088;2023-03-31T00:22:04;6.87;;;1.83;;
11735;SDS011;5924;51.398;7.088;2023-03-31T00:24:30;1.60;;;1.50;;
11735;SDS011;5924;51.398;7.088;2023-03-31T00:27:05;3.03;;;1.53;;
11735;SDS011;5924;51.398;7.088;2023-03-31T00:29:31;5.80;;;1.60;;
11735;SDS011;5924;51.398;7.088;2023-03-31T00:31:59;1.20;;;1.03;;
11735;SDS011;5924;51.398;7.088;2023-03-31T00:34:25;1.30;;;1.20;;
11735;SDS011;5924;51.398;7.088;2023-03-31T00:36:51;3.83;;;1.13;;
11735;SDS011;5924;51.398;7.088;2023-03-31T00:39:20;1.70;;;1.10;;
11735;SDS011;5924;51.398;7.088;2023-03-31T00:41:47;5.10;;;1.27;;
11735;SDS011;5924;51.398;7.088;2023-03-31T00:44:17;1.50;;;1.27;;
11735;SDS011;5924;51.398;7.088;2023-03-31T00:49:36;3.70;;;1.23;;
11735;SDS011;5924;51.398;7.088;2023-03-31T00:54:47;3.30;;;0.87;;
11735;SDS011;5924;51.398;7.088;2023-03-31T00:57:25;3.17;;;1.17;;
11735;SDS011;5924;51.398;7.088;2023-03-31T00:59:57;9.73;;;1.50;;
11735;SDS011;5924;51.398;7.088;2023-03-31T01:02:29;4.33;;;1.17;;
11735;SDS011;5924;51.398;7.088;2023-03-31T01:04:56;6.27;;;1.77;;
11735;SDS011;5924;51.398;7.088;2023-03-31T01:07:36;4.50;;;1.33;;
11735;SDS011;5924;51.398;7.088;2023-03-31T01:10:08;6.03;;;1.03;;
11735;SDS011;5924;51.398;7.088;2023-03-31T01:12:36;5.37;;;2.07;;
11735;SDS011;5924;51.398;7.088;2023-03-31T01:15:04;2.13;;;1.63;;
11735;SDS011;5924;51.398;7.088;2023-03-31T01:17:31;1.57;;;1.53;;
11735;SDS011;5924;51.398;7.088;2023-03-31T01:28:32;6.00;;;1.40;;
11735;SDS011;5924;51.398;7.088;2023-03-31T01:33:51;3.93;;;1.50;;
11735;SDS011;5924;51.398;7.088;2023-03-31T01:47:50;4.50;;;1.83;;
11735;SDS011;5924;51.398;7.088;2023-03-31T01:52:55;4.33;;;2.10;;
11735;SDS011;5924;51.398;7.088;2023-03-31T01:55:34;5.83;;;1.83;;
11735;SDS011;5924;51.398;7.088;2023-03-31T01:58:09;3.70;;;1.63;;
11735;SDS011;5924;51.398;7.088;2023-03-31T02:00:58;3.33;;;1.60;;
11735;SDS011;5924;51.398;7.088;2023-03-31T02:03:34;4.57;;;1.60;;
11735;SDS011;5924;51.398;7.088;2023-03-31T02:06:07;3.60;;;1.73;;
11735;SDS011;5924;51.398;7.088;2023-03-31T02:08:42;2.60;;;1.50;;
11735;SDS011;5924;51.398;7.088;2023-03-31T02:11:12;10.77;;;2.50;;
11735;SDS011;5924;51.398;7.088;2023-03-31T02:13:38;7.97;;;2.20;;
11735;SDS011;5924;51.398;7.088;2023-03-31T02:16:11;5.27;;;2.23;;
11735;SDS011;5924;51.398;7.088;2023-03-31T02:18:41;4.57;;;2.07;;
11735;SDS011;5924;51.398;7.088;2023-03-31T02:21:08;8.87;;;2.10;;
11735;SDS011;5924;51.398;7.088;2023-03-31T02:23:35;7.43;;;1.70;;
11735;SDS011;5924;51.398;7.088;2023-03-31T02:26:07;7.67;;;1.93;;
11735;SDS011;5924;51.398;7.088;2023-03-31T02:28:37;10.50;;;2.40;;
11735;SDS011;5924;51.398;7.088;2023-03-31T02:31:05;11.97;;;2.10;;
11735;SDS011;5924;51.398;7.088;2023-03-31T02:33:40;6.67;;;2.00;;
11735;SDS011;5924;51.398;7.088;2023-03-31T02:36:06;5.70;;;1.80;;
11735;SDS011;5924;51.398;7.088;2023-03-31T02:38:34;13.53;;;2.30;;
11735;SDS011;5924;51.398;7.088;2023-03-31T02:41:08;10.70;;;2.43;;
11735;SDS011;5924;51.398;7.088;2023-03-31T02:43:34;9.00;;;1.80;;
11735;SDS011;5924;51.398;7.088;2023-03-31T02:46:00;12.00;;;2.07;;
11735;SDS011;5924;51.398;7.088;2023-03-31T02:48:36;7.00;;;2.17;;
11735;SDS011;5924;51.398;7.088;2023-03-31T02:51:15;13.40;;;2.97;;
11735;SDS011;5924;51.398;7.088;2023-03-31T03:10:07;8.77;;;2.93;;
11735;SDS011;5924;51.398;7.088;2023-03-31T03:15:47;13.23;;;2.47;;
11735;SDS011;5924;51.398;7.088;2023-03-31T03:18:17;13.90;;;2.40;;
11735;SDS011;5924;51.398;7.088;2023-03-31T03:20:43;11.83;;;2.70;;
11735;SDS011;5924;51.398;7.088;2023-03-31T03:23:13;9.83;;;1.60;;
11735;SDS011;5924;51.398;7.088;2023-03-31T03:25:40;14.73;;;2.50;;
11735;SDS011;5924;51.398;7.088;2023-03-31T03:28:06;6.20;;;2.03;;
11735;SDS011;5924;51.398;7.088;2023-03-31T03:30:31;9.83;;;2.30;;
11735;SDS011;5924;51.398;7.088;2023-03-31T03:32:57;10.17;;;2.10;;
11735;SDS011;5924;51.398;7.088;2023-03-31T03:35:23;8.23;;;2.00;;
11735;SDS011;5924;51.398;7.088;2023-03-31T03:37:49;9.87;;;2.90;;
11735;SDS011;5924;51.398;7.088;2023-03-31T03:40:15;10.83;;;2.33;;
11735;SDS011;5924;51.398;7.088;2023-03-31T03:42:40;9.50;;;2.73;;
11735;SDS011;5924;51.398;7.088;2023-03-31T03:45:07;6.47;;;1.90;;
11735;SDS011;5924;51.398;7.088;2023-03-31T03:47:33;13.53;;;2.27;;
11735;SDS011;5924;51.398;7.088;2023-03-31T03:50:00;5.73;;;2.40;;
11735;SDS011;5924;51.398;7.088;2023-03-31T03:52:26;8.53;;;2.03;;
11735;SDS011;5924;51.398;7.088;2023-03-31T03:54:52;7.50;;;2.00;;
11735;SDS011;5924;51.398;7.088;2023-03-31T03:57:17;4.73;;;1.97;;
11735;SDS011;5924;51.398;7.088;2023-03-31T03:59:43;5.70;;;2.20;;
11735;SDS011;5924;51.398;7.088;2023-03-31T04:02:08;6.53;;;2.00;;
11735;SDS011;5924;51.398;7.088;2023-03-31T04:04:34;5.93;;;1.80;;
11735;SDS011;5924;51.398;7.088;2023-03-31T04:07:00;8.60;;;2.10;;
11735;SDS011;5924;51.398;7.088;2023-03-31T04:09:26;5.13;;;2.10;;
11735;SDS011;5924;51.398;7.088;2023-03-31T04:11:52;8.87;;;2.27;;
11735;SDS011;5924;51.398;7.088;2023-03-31T04:14:18;7.23;;;2.00;;
11735;SDS011;5924;51.398;7.088;2023-03-31T04:16:43;3.60;;;1.80;;
11735;SDS011;5924;51.398;7.088;2023-03-31T04:19:11;3.70;;;1.70;;
11735;SDS011;5924;51.398;7.088;2023-03-31T04:21:38;8.77;;;2.23;;
11735;SDS011;5924;51.398;7.088;2023-03-31T04:24:12;9.40;;;1.70;;
11735;SDS011;5924;51.398;7.088;2023-03-31T04:26:45;8.07;;;2.17;;
11735;SDS011;5924;51.398;7.088;2023-03-31T04:29:14;17.10;;;2.37;;
11735;SDS011;5924;51.398;7.088;2023-03-31T04:31:41;15.57;;;2.40;;
11735;SDS011;5924;51.398;7.088;2023-03-31T04:34:08;7.70;;;2.33;;
11735;SDS011;5924;51.398;7.088;2023-03-31T04:36:38;7.73;;;1.80;;
11735;SDS011;5924;51.398;7.088;2023-03-31T04:39:11;8.77;;;2.57;;
11735;SDS011;5924;51.398;7.088;2023-03-31T04:41:37;9.03;;;1.67;;
11735;SDS011;5924;51.398;7.088;2023-03-31T04:44:03;6.47;;;1.83;;
11735;SDS011;5924;51.398;7.088;2023-03-31T04:46:29;6.90;;;1.97;;
11735;SDS011;5924;51.398;7.088;2023-03-31T04:48:56;9.73;;;2.30;;
11735;SDS011;5924;51.398;7.088;2023-03-31T04:51:23;7.00;;;2.10;;
11735;SDS011;5924;51.398;7.088;2023-03-31T04:53:48;5.97;;;2.27;;
11735;SDS011;5924;51.398;7.088;2023-03-31T04:56:14;4.80;;;2.13;;
11735;SDS011;5924;51.398;7.088;2023-03-31T04:58:40;8.23;;;2.07;;
11735;SDS011;5924;51.398;7.088;2023-03-31T05:01:06;4.63;;;2.20;;
11735;SDS011;5924;51.398;7.088;2023-03-31T05:03:31;6.33;;;2.13;;
11735;SDS011;5924;51.398;7.088;2023-03-31T05:05:58;5.80;;;1.63;;
11735;SDS011;5924;51.398;7.088;2023-03-31T05:08:24;3.17;;;1.77;;
11735;SDS011;5924;51.398;7.088;2023-03-31T05:10:51;5.83;;;1.40;;
11735;SDS011;5924;51.398;7.088;2023-03-31T05:13:17;5.87;;;1.87;;
11735;SDS011;5924;51.398;7.088;2023-03-31T05:15:42;9.07;;;1.57;;
11735;SDS011;5924;51.398;7.088;2023-03-31T05:18:14;3.60;;;1.30;;
11735;SDS011;5924;51.398;7.088;2023-03-31T05:20:40;3.50;;;1.33;;
11735;SDS011;5924;51.398;7.088;2023-03-31T05:23:06;3.07;;;1.40;;
11735;SDS011;5924;51.398;7.088;2023-03-31T05:25:32;3.50;;;1.73;;
11735;SDS011;5924;51.398;7.088;2023-03-31T05:27:58;1.77;;;1.57;;
11735;SDS011;5924;51.398;7.088;2023-03-31T05:30:24;7.43;;;2.73;;
11735;SDS011;5924;51.398;7.088;2023-03-31T05:32:50;9.30;;;1.60;;
11735;SDS011;5924;51.398;7.088;2023-03-31T05:35:16;8.30;;;1.70;;
11735;SDS011;5924;51.398;7.088;2023-03-31T05:37:42;6.73;;;1.40;;
11735;SDS011;5924;51.398;7.088;2023-03-31T05:40:08;7.17;;;1.30;;
11735;SDS011;5924;51.398;7.088;2023-03-31T05:42:34;4.70;;;1.60;;
11735;SDS011;5924;51.398;7.088;2023-03-31T05:45:00;2.17;;;1.20;;
11735;SDS011;5924;51.398;7.088;2023-03-31T05:47:26;3.40;;;1.57;;
11735;SDS011;5924;51.398;7.088;2023-03-31T05:49:52;10.63;;;1.30;;
11735;SDS011;5924;51.398;7.088;2023-03-31T05:52:18;2.40;;;1.57;;
11735;SDS011;5924;51.398;7.088;2023-03-31T05:54:44;8.90;;;1.67;;
11735;SDS011;5924;51.398;7.088;2023-03-31T05:57:09;2.70;;;1.40;;
11735;SDS011;5924;51.398;7.088;2023-03-31T05:59:35;8.63;;;2.27;;
11735;SDS011;5924;51.398;7.088;2023-03-31T06:02:02;4.00;;;1.37;;
11735;SDS011;5924;51.398;7.088;2023-03-31T06:04:28;2.50;;;1.10;;
11735;SDS011;5924;51.398;7.088;2023-03-31T06:06:55;2.50;;;2.10;;
11735;SDS011;5924;51.398;7.088;2023-03-31T06:09:22;2.00;;;1.23;;
11735;SDS011;5924;51.398;7.088;2023-03-31T06:11:48;2.30;;;1.30;;
11735;SDS011;5924;51.398;7.088;2023-03-31T06:14:14;1.50;;;1.40;;
11735;SDS011;5924;51.398;7.088;2023-03-31T06:16:40;3.03;;;1.40;;
11735;SDS011;5924;51.398;7.088;2023-03-31T06:19:06;1.40;;;1.30;;
11735;SDS011;5924;51.398;7.088;2023-03-31T06:21:32;6.83;;;1.43;;
11735;SDS011;5924;51.398;7.088;2023-03-31T06:23:58;2.53;;;1.30;;
11735;SDS011;5924;51.398;7.088;2023-03-31T06:26:24;3.17;;;1.50;;
11735;SDS011;5924;51.398;7.088;2023-03-31T06:28:51;5.47;;;1.43;;
11735;SDS011;5924;51.398;7.088;2023-03-31T06:31:18;5.20;;;2.37;;
11735;SDS011;5924;51.398;7.088;2023-03-31T06:33:45;3.80;;;1.47;;
11735;SDS011;5924;51.398;7.088;2023-03-31T06:36:13;2.37;;;1.20;;
11735;SDS011;5924;51.398;7.088;2023-03-31T06:38:40;5.20;;;1.80;;
11735;SDS011;5924;51.398;7.088;2023-03-31T06:41:07;2.70;;;1.43;;
11735;SDS011;5924;51.398;7.088;2023-03-31T06:43:36;4.10;;;1.70;;
11735;SDS011;5924;51.398;7.088;2023-03-31T06:46:02;5.60;;;1.33;;
11735;SDS011;5924;51.398;7.088;2023-03-31T06:48:28;5.10;;;1.40;;
11735;SDS011;5924;51.398;7.088;2023-03-31T06:50:53;6.67;;;1.47;;
11735;SDS011;5924;51.398;7.088;2023-03-31T06:53:19;1.50;;;1.40;;
11735;SDS011;5924;51.398;7.088;2023-03-31T06:55:48;3.13;;;1.00;;
11735;SDS011;5924;51.398;7.088;2023-03-31T06:58:14;1.97;;;1.43;;
11735;SDS011;5924;51.398;7.088;2023-03-31T07:00:39;12.83;;;3.00;;
11735;SDS011;5924;51.398;7.088;2023-03-31T07:03:05;6.30;;;1.20;;
11735;SDS011;5924;51.398;7.088;2023-03-31T07:05:33;2.90;;;1.30;;
11735;SDS011;5924;51.398;7.088;2023-03-31T07:07:59;1.53;;;1.30;;
11735;SDS011;5924;51.398;7.088;2023-03-31T07:10:26;2.53;;;1.33;;
11735;SDS011;5924;51.398;7.088;2023-03-31T07:12:53;5.57;;;1.67;;
11735;SDS011;5924;51.398;7.088;2023-03-31T07:15:19;1.47;;;1.43;;
11735;SDS011;5924;51.398;7.088;2023-03-31T07:17:45;4.07;;;1.50;;
11735;SDS011;5924;51.398;7.088;2023-03-31T07:20:14;3.97;;;1.30;;
11735;SDS011;5924;51.398;7.088;2023-03-31T07:22:42;1.40;;;1.40;;
11735;SDS011;5924;51.398;7.088;2023-03-31T07:25:09;2.87;;;1.40;;
11735;SDS011;5924;51.398;7.088;2023-03-31T07:27:36;2.00;;;1.57;;
11735;SDS011;5924;51.398;7.088;2023-03-31T07:30:03;4.43;;;1.47;;
11735;SDS011;5924;51.398;7.088;2023-03-31T07:32:30;1.30;;;1.20;;
11735;SDS011;5924;51.398;7.088;2023-03-31T07:34:57;7.13;;;1.60;;
11735;SDS011;5924;51.398;7.088;2023-03-31T07:37:23;2.77;;;1.60;;
11735;SDS011;5924;51.398;7.088;2023-03-31T07:39:49;1.17;;;1.00;;
11735;SDS011;5924;51.398;7.088;2023-03-31T07:42:15;2.07;;;1.67;;
11735;SDS011;5924;51.398;7.088;2023-03-31T07:44:41;3.30;;;1.23;;
11735;SDS011;5924;51.398;7.088;2023-03-31T07:47:06;4.20;;;1.27;;
11735;SDS011;5924;51.398;7.088;2023-03-31T07:49:32;2.90;;;1.60;;
11735;SDS011;5924;51.398;7.088;2023-03-31T07:51:59;1.63;;;1.53;;
11735;SDS011;5924;51.398;7.088;2023-03-31T07:54:25;3.57;;;1.33;;
11735;SDS011;5924;51.398;7.088;2023-03-31T07:56:51;6.80;;;1.63;;
11735;SDS011;5924;51.398;7.088;2023-03-31T07:59:17;1.73;;;1.23;;
11735;SDS011;5924;51.398;7.088;2023-03-31T08:01:43;2.57;;;0.97;;
11735;SDS011;5924;51.398;7.088;2023-03-31T08:04:10;4.10;;;1.17;;
11735;SDS011;5924;51.398;7.088;2023-03-31T08:06:36;1.80;;;1.00;;
11735;SDS011;5924;51.398;7.088;2023-03-31T08:09:02;2.83;;;0.83;;
11735;SDS011;5924;51.398;7.088;2023-03-31T08:11:31;2.10;;;1.13;;
11735;SDS011;5924;51.398;7.088;2023-03-31T08:13:56;3.40;;;1.70;;
11735;SDS011;5924;51.398;7.088;2023-03-31T08:16:22;2.83;;;1.03;;
11735;SDS011;5924;51.398;7.088;2023-03-31T08:18:48;0.70;;;0.70;;
11735;SDS011;5924;51.398;7.088;2023-03-31T08:21:13;1.73;;;1.20;;
11735;SDS011;5924;51.398;7.088;2023-03-31T08:23:39;2.60;;;1.07;;
11735;SDS011;5924;51.398;7.088;2023-03-31T08:26:12;1.27;;;1.03;;
11735;SDS011;5924;51.398;7.088;2023-03-31T08:28:42;1.37;;;1.20;;
11735;SDS011;5924;51.398;7.088;2023-03-31T08:31:07;1.20;;;1.20;;
11735;SDS011;5924;51.398;7.088;2023-03-31T08:33:34;4.83;;;1.20;;
11735;SDS011;5924;51.398;7.088;2023-03-31T08:36:02;2.23;;;1.13;;
11735;SDS011;5924;51.398;7.088;2023-03-31T08:38:29;6.30;;;1.10;;
11735;SDS011;5924;51.398;7.088;2023-03-31T08:40:59;2.30;;;1.30;;
11735;SDS011;5924;51.398;7.088;2023-03-31T08:43:26;2.40;;;1.20;;
11735;SDS011;5924;51.398;7.088;2023-03-31T08:45:58;3.50;;;1.50;;
11735;SDS011;5924;51.398;7.088;2023-03-31T08:54:01;3.00;;;1.03;;
11735;SDS011;5924;51.398;7.088;2023-03-31T08:56:35;3.50;;;1.40;;
11735;SDS011;5924;51.398;7.088;2023-03-31T08:59:05;7.30;;;1.40;;
11735;SDS011;5924;51.398;7.088;2023-03-31T09:01:48;1.30;;;1.30;;
11735;SDS011;5924;51.398;7.088;2023-03-31T09:18:37;7.03;;;1.50;;
11735;SDS011;5924;51.398;7.088;2023-03-31T09:21:22;1.70;;;1.17;;
11735;SDS011;5924;51.398;7.088;2023-03-31T09:26:54;2.20;;;1.43;;
11735;SDS011;5924;51.398;7.088;2023-03-31T09:32:14;4.50;;;1.37;;
11735;SDS011;5924;51.398;7.088;2023-03-31T09:34:40;2.80;;;1.43;;
11735;SDS011;5924;51.398;7.088;2023-03-31T09:37:08;9.60;;;1.40;;
11735;SDS011;5924;51.398;7.088;2023-03-31T09:39:35;1.57;;;1.47;;
11735;SDS011;5924;51.398;7.088;2023-03-31T09:42:02;1.57;;;1.50;;
11735;SDS011;5924;51.398;7.088;2023-03-31T09:44:36;3.23;;;1.43;;
11735;SDS011;5924;51.398;7.088;2023-03-31T09:47:09;2.20;;;1.37;;
11735;SDS011;5924;51.398;7.088;2023-03-31T09:49:40;5.43;;;1.97;;
11735;SDS011;5924;51.398;7.088;2023-03-31T09:54:47;2.40;;;2.20;;
11735;SDS011;5924;51.398;7.088;2023-03-31T09:57:26;12.33;;;2.40;;
11735;SDS011;5924;51.398;7.088;2023-03-31T09:59:53;7.00;;;2.47;;
11735;SDS011;5924;51.398;7.088;2023-03-31T10:13:27;7.07;;;5.03;;
11735;SDS011;5924;51.398;7.088;2023-03-31T10:16:05;15.07;;;5.70;;
11735;SDS011;5924;51.398;7.088;2023-03-31T10:18:37;8.33;;;2.93;;
11735;SDS011;5924;51.398;7.088;2023-03-31T10:23:47;5.20;;;1.97;;
11735;SDS011;5924;51.398;7.088;2023-03-31T10:26:19;4.30;;;2.00;;
11735;SDS011;5924;51.398;7.088;2023-03-31T10:28:47;11.37;;;2.50;;
11735;SDS011;5924;51.398;7.088;2023-03-31T10:31:16;12.07;;;2.70;;
11735;SDS011;5924;51.398;7.088;2023-03-31T10:33:44;10.23;;;2.47;;
11735;SDS011;5924;51.398;7.088;2023-03-31T10:36:34;12.23;;;2.30;;
11735;SDS011;5924;51.398;7.088;2023-03-31T10:38:59;9.43;;;3.07;;
11735;SDS011;5924;51.398;7.088;2023-03-31T10:41:31;26.30;;;3.97;;
11735;SDS011;5924;51.398;7.088;2023-03-31T10:43:58;17.20;;;2.63;;
11735;SDS011;5924;51.398;7.088;2023-03-31T10:46:45;9.47;;;2.40;;
11735;SDS011;5924;51.398;7.088;2023-03-31T10:49:24;6.10;;;2.00;;
11735;SDS011;5924;51.398;7.088;2023-03-31T10:51:52;9.83;;;3.00;;
11735;SDS011;5924;51.398;7.088;2023-03-31T10:54:18;11.40;;;3.50;;
11735;SDS011;5924;51.398;7.088;2023-03-31T10:56:50;11.60;;;2.70;;
11735;SDS011;5924;51.398;7.088;2023-03-31T11:05:34;9.13;;;3.10;;
11735;SDS011;5924;51.398;7.088;2023-03-31T11:08:27;7.33;;;2.23;;
11735;SDS011;5924;51.398;7.088;2023-03-31T11:11:07;7.00;;;2.37;;
11735;SDS011;5924;51.398;7.088;2023-03-31T11:16:50;2.93;;;1.10;;
11735;SDS011;5924;51.398;7.088;2023-03-31T11:22:33;2.10;;;1.30;;
11735;SDS011;5924;51.398;7.088;2023-03-31T11:30:42;1.80;;;1.03;;
11735;SDS011;5924;51.398;7.088;2023-03-31T11:33:25;5.33;;;1.33;;
11735;SDS011;5924;51.398;7.088;2023-03-31T11:38:46;2.93;;;1.20;;
11735;SDS011;5924;51.398;7.088;2023-03-31T11:41:34;2.27;;;1.10;;
11735;SDS011;5924;51.398;7.088;2023-03-31T11:44:05;1.30;;;1.20;;
11735;SDS011;5924;51.398;7.088;2023-03-31T11:49:21;8.50;;;3.10;;
11735;SDS011;5924;51.398;7.088;2023-03-31T11:54:24;6.80;;;2.17;;
11735;SDS011;5924;51.398;7.088;2023-03-31T11:57:09;6.00;;;1.50;;
11735;SDS011;5924;51.398;7.088;2023-03-31T11:59:42;1.80;;;1.23;;
11735;SDS011;5924;51.398;7.088;2023-03-31T12:02:20;4.27;;;1.33;;
11735;SDS011;5924;51.398;7.088;2023-03-31T12:04:54;4.93;;;1.23;;
11735;SDS011;5924;51.398;7.088;2023-03-31T12:07:29;3.57;;;1.40;;
11735;SDS011;5924;51.398;7.088;2023-03-31T12:12:51;4.43;;;1.33;;
11735;SDS011;5924;51.398;7.088;2023-03-31T12:15:40;4.13;;;1.80;;
11735;SDS011;5924;51.398;7.088;2023-03-31T12:20:44;4.93;;;1.10;;
11735;SDS011;5924;51.398;7.088;2023-03-31T12:23:19;1.43;;;0.90;;
11735;SDS011;5924;51.398;7.088;2023-03-31T12:25:57;4.37;;;1.40;;
11735;SDS011;5924;51.398;7.088;2023-03-31T12:28:34;11.03;;;1.80;;
11735;SDS011;5924;51.398;7.088;2023-03-31T12:31:02;4.10;;;1.53;;
11735;SDS011;5924;51.398;7.088;2023-03-31T12:33:41;3.17;;;1.33;;
11735;SDS011;5924;51.398;7.088;2023-03-31T12:41:30;6.13;;;1.57;;
11735;SDS011;5924;51.398;7.088;2023-03-31T12:44:33;7.77;;;2.03;;
11735;SDS011;5924;51.398;7.088;2023-03-31T12:47:11;8.57;;;2.33;;
11735;SDS011;5924;51.398;7.088;2023-03-31T12:55:55;19.00;;;2.73;;
11735;SDS011;5924;51.398;7.088;2023-03-31T13:16:37;7.30;;;3.50;;
11735;SDS011;5924;51.398;7.088;2023-03-31T13:19:02;9.20;;;3.20;;
11735;SDS011;5924;51.398;7.088;2023-03-31T13:21:29;5.67;;;2.07;;
11735;SDS011;5924;51.398;7.088;2023-03-31T13:23:58;8.07;;;2.30;;
11735;SDS011;5924;51.398;7.088;2023-03-31T13:37:28;11.57;;;2.57;;
11735;SDS011;5924;51.398;7.088;2023-03-31T13:46:02;10.67;;;2.17;;
11735;SDS011;5924;51.398;7.088;2023-03-31T13:48:52;3.37;;;1.60;;
11735;SDS011;5924;51.398;7.088;2023-03-31T13:51:40;8.90;;;2.33;;
11735;SDS011;5924;51.398;7.088;2023-03-31T14:02:53;2.90;;;1.20;;
11735;SDS011;5924;51.398;7.088;2023-03-31T14:07:54;4.67;;;1.37;;
11735;SDS011;5924;51.398;7.088;2023-03-31T14:13:04;6.00;;;1.47;;
11735;SDS011;5924;51.398;7.088;2023-03-31T14:15:35;4.23;;;1.27;;
11735;SDS011;5924;51.398;7.088;2023-03-31T14:18:04;3.70;;;1.50;;
11735;SDS011;5924;51.398;7.088;2023-03-31T14:23:28;10.10;;;1.67;;
11735;SDS011;5924;51.398;7.088;2023-03-31T14:36:58;3.33;;;1.90;;
11735;SDS011;5924;51.398;7.088;2023-03-31T14:39:39;6.83;;;2.43;;
11735;SDS011;5924;51.398;7.088;2023-03-31T14:42:13;6.63;;;1.50;;
11735;SDS011;5924;51.398;7.088;2023-03-31T14:44:45;4.00;;;1.57;;
11735;SDS011;5924;51.398;7.088;2023-03-31T14:47:20;5.50;;;1.10;;
11735;SDS011;5924;51.398;7.088;2023-03-31T14:52:46;7.13;;;1.43;;
11735;SDS011;5924;51.398;7.088;2023-03-31T14:55:16;4.93;;;2.10;;
11735;SDS011;5924;51.398;7.088;2023-03-31T14:57:46;9.03;;;1.60;;
11735;SDS011;5924;51.398;7.088;2023-03-31T15:00:15;1.37;;;1.03;;
11735;SDS011;5924;51.398;7.088;2023-03-31T15:02:48;5.37;;;1.47;;
11735;SDS011;5924;51.398;7.088;2023-03-31T15:05:36;1.70;;;0.90;;
11735;SDS011;5924;51.398;7.088;2023-03-31T15:08:02;1.40;;;1.00;;
11735;SDS011;5924;51.398;7.088;2023-03-31T15:10:41;2.20;;;1.37;;
11735;SDS011;5924;51.398;7.088;2023-03-31T15:13:10;4.97;;;1.47;;
11735;SDS011;5924;51.398;7.088;2023-03-31T15:15:41;2.30;;;0.83;;
11735;SDS011;5924;51.398;7.088;2023-03-31T15:18:10;5.50;;;1.10;;
11735;SDS011;5924;51.398;7.088;2023-03-31T15:20:38;4.33;;;1.10;;
11735;SDS011;5924;51.398;7.088;2023-03-31T15:23:19;3.77;;;1.30;;
11735;SDS011;5924;51.398;7.088;2023-03-31T15:25:55;3.00;;;1.50;;
11735;SDS011;5924;51.398;7.088;2023-03-31T15:28:22;3.57;;;1.20;;
11735;SDS011;5924;51.398;7.088;2023-03-31T15:30:51;3.50;;;1.47;;
11735;SDS011;5924;51.398;7.088;2023-03-31T15:33:19;8.20;;;1.77;;
11735;SDS011;5924;51.398;7.088;2023-03-31T15:35:48;5.97;;;1.40;;
11735;SDS011;5924;51.398;7.088;2023-03-31T15:38:14;6.63;;;1.87;;
11735;SDS011;5924;51.398;7.088;2023-03-31T15:40:44;5.90;;;3.10;;
11735;SDS011;5924;51.398;7.088;2023-03-31T15:45:54;4.97;;;2.83;;
11735;SDS011;5924;51.398;7.088;2023-03-31T15:48:54;12.90;;;2.87;;
11735;SDS011;5924;51.398;7.088;2023-03-31T15:51:24;10.30;;;2.47;;
11735;SDS011;5924;51.398;7.088;2023-03-31T15:53:54;3.27;;;3.07;;
11735;SDS011;5924;51.398;7.088;2023-03-31T15:56:30;12.03;;;2.57;;
11735;SDS011;5924;51.398;7.088;2023-03-31T15:59:00;6.60;;;2.73;;
11735;SDS011;5924;51.398;7.088;2023-03-31T16:01:29;11.40;;;3.20;;
11735;SDS011;5924;51.398;7.088;2023-03-31T16:04:07;4.80;;;2.27;;
11735;SDS011;5924;51.398;7.088;2023-03-31T16:06:42;6.90;;;2.67;;
11735;SDS011;5924;51.398;7.088;2023-03-31T16:09:46;4.80;;;1.37;;
11735;SDS011;5924;51.398;7.088;2023-03-31T16:12:03;6.77;;;1.57;;
11735;SDS011;5924;51.398;7.088;2023-03-31T16:15:02;6.67;;;1.50;;
11735;SDS011;5924;51.398;7.088;2023-03-31T16:17:33;7.10;;;1.60;;
11735;SDS011;5924;51.398;7.088;2023-03-31T16:20:07;4.20;;;1.20;;
11735;SDS011;5924;51.398;7.088;2023-03-31T16:22:42;3.50;;;1.60;;
11735;SDS011;5924;51.398;7.088;2023-03-31T16:25:12;0.80;;;0.80;;
11735;SDS011;5924;51.398;7.088;2023-03-31T16:27:41;2.30;;;1.50;;
11735;SDS011;5924;51.398;7.088;2023-03-31T16:30:14;3.40;;;1.13;;
11735;SDS011;5924;51.398;7.088;2023-03-31T16:35:36;4.93;;;1.03;;
11735;SDS011;5924;51.398;7.088;2023-03-31T16:38:10;3.73;;;1.23;;
11735;SDS011;5924;51.398;7.088;2023-03-31T16:40:40;5.30;;;1.40;;
11735;SDS011;5924;51.398;7.088;2023-03-31T16:43:12;1.57;;;1.43;;
11735;SDS011;5924;51.398;7.088;2023-03-31T16:45:45;3.00;;;1.50;;
11735;SDS011;5924;51.398;7.088;2023-03-31T16:48:13;5.70;;;2.03;;
11735;SDS011;5924;51.398;7.088;2023-03-31T16:50:40;2.30;;;1.30;;
11735;SDS011;5924;51.398;7.088;2023-03-31T16:53:06;4.00;;;1.40;;
11735;SDS011;5924;51.398;7.088;2023-03-31T16:55:32;6.60;;;1.17;;
11735;SDS011;5924;51.398;7.088;2023-03-31T16:57:58;2.97;;;1.37;;
11735;SDS011;5924;51.398;7.088;2023-03-31T17:00:28;10.83;;;1.83;;
11735;SDS011;5924;51.398;7.088;2023-03-31T17:02:55;1.80;;;1.70;;
11735;SDS011;5924;51.398;7.088;2023-03-31T17:05:22;5.70;;;1.87;;
11735;SDS011;5924;51.398;7.088;2023-03-31T17:07:48;2.27;;;2.17;;
11735;SDS011;5924;51.398;7.088;2023-03-31T17:10:13;4.23;;;2.17;;
11735;SDS011;5924;51.398;7.088;2023-03-31T17:12:40;4.03;;;1.73;;
11735;SDS011;5924;51.398;7.088;2023-03-31T17:15:06;3.73;;;2.87;;
11735;SDS011;5924;51.398;7.088;2023-03-31T17:17:32;5.03;;;2.23;;
11735;SDS011;5924;51.398;7.088;2023-03-31T17:19:58;4.50;;;1.30;;
11735;SDS011;5924;51.398;7.088;2023-03-31T17:22:24;3.07;;;1.90;;
11735;SDS011;5924;51.398;7.088;2023-03-31T17:24:50;4.60;;;1.67;;
11735;SDS011;5924;51.398;7.088;2023-03-31T17:27:22;8.30;;;1.50;;
11735;SDS011;5924;51.398;7.088;2023-03-31T17:29:49;3.20;;;1.33;;
11735;SDS011;5924;51.398;7.088;2023-03-31T17:32:15;1.77;;;1.20;;
11735;SDS011;5924;51.398;7.088;2023-03-31T17:34:41;2.83;;;1.30;;
11735;SDS011;5924;51.398;7.088;2023-03-31T17:37:07;5.40;;;1.90;;
11735;SDS011;5924;51.398;7.088;2023-03-31T17:39:34;4.73;;;1.47;;
11735;SDS011;5924;51.398;7.088;2023-03-31T17:42:00;1.57;;;0.70;;
11735;SDS011;5924;51.398;7.088;2023-03-31T17:44:26;2.03;;;1.53;;
11735;SDS011;5924;51.398;7.088;2023-03-31T17:46:52;4.50;;;2.30;;
11735;SDS011;5924;51.398;7.088;2023-03-31T17:49:18;8.63;;;3.53;;
11735;SDS011;5924;51.398;7.088;2023-03-31T17:51:43;9.20;;;3.40;;
11735;SDS011;5924;51.398;7.088;2023-03-31T17:54:09;6.60;;;1.50;;
11735;SDS011;5924;51.398;7.088;2023-03-31T17:56:35;1.60;;;1.53;;
11735;SDS011;5924;51.398;7.088;2023-03-31T17:59:02;3.80;;;1.30;;
11735;SDS011;5924;51.398;7.088;2023-03-31T18:01:28;0.80;;;0.80;;
11735;SDS011;5924;51.398;7.088;2023-03-31T18:03:55;2.00;;;1.10;;
11735;SDS011;5924;51.398;7.088;2023-03-31T18:06:21;1.30;;;1.20;;
11735;SDS011;5924;51.398;7.088;2023-03-31T18:08:49;2.53;;;0.80;;
11735;SDS011;5924;51.398;7.088;2023-03-31T18:11:15;1.17;;;1.10;;
11735;SDS011;5924;51.398;7.088;2023-03-31T18:13:41;3.00;;;1.40;;
11735;SDS011;5924;51.398;7.088;2023-03-31T18:16:07;6.93;;;2.20;;
11735;SDS011;5924;51.398;7.088;2023-03-31T18:18:35;1.93;;;1.00;;
11735;SDS011;5924;51.398;7.088;2023-03-31T18:21:02;6.63;;;1.20;;
11735;SDS011;5924;51.398;7.088;2023-03-31T18:23:33;4.83;;;1.00;;
11735;SDS011;5924;51.398;7.088;2023-03-31T18:25:59;1.83;;;1.07;;
11735;SDS011;5924;51.398;7.088;2023-03-31T18:28:26;3.23;;;1.23;;
11735;SDS011;5924;51.398;7.088;2023-03-31T18:30:52;3.23;;;1.43;;
11735;SDS011;5924;51.398;7.088;2023-03-31T18:33:18;3.33;;;1.70;;
11735;SDS011;5924;51.398;7.088;2023-03-31T18:35:44;3.27;;;1.17;;
11735;SDS011;5924;51.398;7.088;2023-03-31T18:38:13;2.33;;;0.80;;
11735;SDS011;5924;51.398;7.088;2023-03-31T18:40:46;4.00;;;1.50;;
11735;SDS011;5924;51.398;7.088;2023-03-31T18:43:13;1.90;;;1.03;;